Time;durP1;ratioP1;P1;durP2;ratioP2;P2;SDS_P1;SDS_P2;PMS_P1;PMS_P2;Temp;Humidity;BMP_temperature;BMP_pressure;BME280_temperature;BME280_humidity;BME280_pressure;Samples;Min_cycle;Max_cycle;Signal;HPM_P1;HPM_P2
2023/05/30 00:01:13;;;;;;;12.23;8.10;;;;;;;19.69;58.40;99077.97;4359376;32;34235;-85
2023/05/30 00:03:46;;;;;;;12.75;7.65;;;;;;;19.72;58.33;99075.28;4358323;32;33568;-84
2023/05/30 00:06:14;;;;;;;13.70;8.20;;;;;;;19.71;58.59;99072.69;4355980;32;34161;-85
2023/05/30 00:08:43;;;;;;;13.07;8.05;;;;;;;19.86;57.74;99074.94;4374601;32;33945;-85
2023/05/30 00:11:14;;;;;;;10.85;7.68;;;;;;;19.84;57.50;99069.69;4362440;32;33370;-86
2023/05/30 00:13:44;;;;;;;14.13;8.70;;;;;;;19.90;57.19;99072.16;4346024;32;33747;-86
2023/05/30 00:16:13;;;;;;;13.27;7.80;;;;;;;19.89;57.17;99066.97;4343957;32;33488;-86
2023/05/30 00:18:41;;;;;;;12.85;8.15;;;;;;;19.77;57.44;99067.25;4358940;32;33843;-85
2023/05/30 00:21:10;;;;;;;11.57;7.95;;;;;;;19.76;57.75;99061.13;4342817;33;33626;-87
2023/05/30 00:23:39;;;;;;;13.40;9.55;;;;;;;19.70;58.17;99069.22;4338328;32;34086;-86
2023/05/30 00:26:10;;;;;;;12.93;8.40;;;;;;;19.72;57.84;99066.53;4358467;32;33595;-85
2023/05/30 00:28:38;;;;;;;12.60;8.55;;;;;;;19.85;57.62;99067.91;4361815;32;33944;-86
2023/05/30 00:31:06;;;;;;;12.43;7.87;;;;;;;19.79;57.73;99063.69;4358681;32;33323;-85
2023/05/30 00:33:34;;;;;;;12.93;7.85;;;;;;;19.76;57.78;99069.03;4359298;32;33804;-83
2023/05/30 00:36:01;;;;;;;12.85;8.10;;;;;;;19.74;57.90;99068.22;4346221;32;33006;-84
2023/05/30 00:38:29;;;;;;;10.65;8.10;;;;;;;19.67;58.30;99069.28;4347713;32;33513;-85
2023/05/30 00:40:57;;;;;;;12.52;8.52;;;;;;;19.52;59.04;99067.00;4359730;32;33973;-85
2023/05/30 00:43:25;;;;;;;13.50;8.52;;;;;;;19.57;59.08;99063.34;4361108;32;33976;-86
2023/05/30 00:45:54;;;;;;;14.63;8.88;;;;;;;19.41;60.10;99056.75;4366639;32;34126;-87
2023/05/30 00:48:23;;;;;;;12.75;8.27;;;;;;;19.35;60.33;99055.13;4350563;32;34732;-85
2023/05/30 00:50:51;;;;;;;15.40;8.73;;;;;;;19.28;60.66;99057.94;4354553;32;34471;-85
2023/05/30 00:53:21;;;;;;;15.02;9.02;;;;;;;19.34;60.50;99053.41;4361235;32;33717;-85
2023/05/30 00:55:48;;;;;;;12.95;8.30;;;;;;;19.33;60.93;99067.47;4343899;32;34167;-84
2023/05/30 00:58:16;;;;;;;12.95;8.13;;;;;;;19.08;60.66;99068.94;4344333;32;33655;-85
2023/05/30 01:00:45;;;;;;;14.40;8.63;;;;;;;19.31;60.62;99060.50;4358275;32;33474;-85
2023/05/30 01:03:15;;;;;;;12.60;7.87;;;;;;;19.35;60.98;99068.28;4346712;32;34784;-86
2023/05/30 01:05:44;;;;;;;13.05;8.70;;;;;;;19.53;59.86;99060.84;4361238;32;34989;-85
2023/05/30 01:08:11;;;;;;;11.95;8.70;;;;;;;19.53;60.17;99068.72;4360059;32;33928;-85
2023/05/30 01:10:38;;;;;;;13.18;7.95;;;;;;;19.10;60.64;99068.00;4360942;32;33411;-86
2023/05/30 01:13:24;;;;;;;12.77;8.00;;;;;;;19.54;59.28;99067.81;4346537;32;33629;-86
2023/05/30 01:15:57;;;;;;;12.27;7.50;;;;;;;19.84;58.74;99066.19;4343074;32;34027;-86
2023/05/30 01:18:32;;;;;;;13.00;7.97;;;;;;;19.74;59.35;99060.34;4346267;33;33883;-87
2023/05/30 01:21:06;;;;;;;12.52;8.23;;;;;;;19.75;58.89;99067.31;4332767;33;33310;-85
2023/05/30 01:24:08;;;;;;;14.75;8.00;;;;;;;19.63;59.29;99070.25;4342102;33;33433;-85
2023/05/30 01:27:01;;;;;;;12.55;6.90;;;;;;;19.90;58.43;99069.53;4342815;33;33978;-84
2023/05/30 01:29:30;;;;;;;10.90;7.93;;;;;;;19.97;57.93;99062.34;4346987;32;33919;-84
2023/05/30 01:31:58;;;;;;;10.05;6.85;;;;;;;19.84;58.07;99072.31;4344897;33;33361;-84
2023/05/30 01:34:28;;;;;;;14.07;7.53;;;;;;;20.02;57.35;99070.13;4345106;32;33243;-85
2023/05/30 01:36:56;;;;;;;11.18;7.60;;;;;;;19.98;57.36;99063.22;4346011;33;34124;-85
2023/05/30 01:39:23;;;;;;;11.65;7.05;;;;;;;19.80;57.93;99065.41;4344479;33;33763;-84
2023/05/30 01:41:56;;;;;;;12.82;7.72;;;;;;;20.04;57.24;99063.91;4346026;33;34213;-85
2023/05/30 01:44:48;;;;;;;11.50;7.53;;;;;;;20.06;57.29;99061.22;4344093;33;34952;-86
2023/05/30 01:47:26;;;;;;;11.20;7.25;;;;;;;20.15;57.22;99066.22;4346287;33;34957;-85
2023/05/30 01:50:12;;;;;;;13.88;8.07;;;;;;;20.12;57.15;99055.81;4346213;33;34640;-86
2023/05/30 01:52:41;;;;;;;10.27;7.43;;;;;;;20.05;57.30;99056.87;4353971;32;34347;-87
2023/05/30 01:55:10;;;;;;;11.40;7.30;;;;;;;20.21;56.28;99050.28;4345275;33;34009;-85
2023/05/30 01:57:41;;;;;;;10.52;7.15;;;;;;;20.26;55.84;99058.88;4344813;33;35220;-85
2023/05/30 02:00:11;;;;;;;12.10;7.28;;;;;;;20.01;56.17;99057.88;4338598;33;34248;-85
2023/05/30 02:02:38;;;;;;;17.10;7.53;;;;;;;19.88;56.59;99052.91;4329884;33;32957;-86
2023/05/30 02:05:06;;;;;;;13.95;7.62;;;;;;;20.07;55.86;99050.66;4331614;33;34231;-85
2023/05/30 02:07:34;;;;;;;10.88;6.72;;;;;;;20.09;55.83;99051.47;4331692;33;34172;-87
2023/05/30 02:10:02;;;;;;;14.10;7.55;;;;;;;19.97;56.07;99053.59;4344889;32;33528;-87
2023/05/30 02:12:30;;;;;;;13.48;7.57;;;;;;;19.97;55.87;99056.22;4358848;32;32680;-85
2023/05/30 02:14:58;;;;;;;14.20;7.78;;;;;;;19.84;56.02;99053.91;4359415;32;33805;-86
2023/05/30 02:17:25;;;;;;;12.52;7.47;;;;;;;19.93;55.96;99060.72;4360082;32;34174;-85
2023/05/30 02:19:53;;;;;;;14.00;7.82;;;;;;;19.88;56.08;99058.19;4359710;32;34635;-85
2023/05/30 02:22:21;;;;;;;12.10;7.43;;;;;;;19.73;56.42;99060.34;4360310;32;33379;-85
2023/05/30 02:24:48;;;;;;;12.48;7.32;;;;;;;19.74;56.37;99056.84;4359914;32;34198;-85
2023/05/30 02:27:16;;;;;;;11.75;7.40;;;;;;;19.77;56.28;99056.75;4359380;32;33847;-85
2023/05/30 02:29:43;;;;;;;12.98;7.45;;;;;;;19.82;56.39;99054.88;4360484;32;34006;-85
2023/05/30 02:32:11;;;;;;;14.15;7.18;;;;;;;19.84;56.41;99059.16;4361198;32;33600;-86
2023/05/30 02:34:39;;;;;;;15.77;7.72;;;;;;;19.80;56.43;99054.88;4359513;32;33628;-87
2023/05/30 02:37:06;;;;;;;10.82;7.25;;;;;;;19.77;56.90;99054.97;4361274;32;34157;-86
2023/05/30 02:39:33;;;;;;;10.90;6.85;;;;;;;19.92;56.38;99054.56;4353419;32;33861;-85
2023/05/30 02:42:01;;;;;;;10.80;6.70;;;;;;;19.99;55.74;99039.47;4359969;32;33373;-86
2023/05/30 02:44:29;;;;;;;12.07;7.15;;;;;;;19.61;56.89;99048.34;4360504;32;33522;-87
2023/05/30 02:46:57;;;;;;;11.77;7.60;;;;;;;19.68;56.77;99044.69;4359544;32;34236;-87
2023/05/30 02:49:25;;;;;;;11.43;7.00;;;;;;;19.66;56.96;99038.59;4373101;32;33885;-88
2023/05/30 02:51:53;;;;;;;12.55;7.95;;;;;;;19.45;57.30;99034.75;4372768;32;33581;-87
2023/05/30 02:54:21;;;;;;;11.82;8.05;;;;;;;19.56;57.00;99035.34;4364467;32;34245;-87
2023/05/30 02:56:51;;;;;;;11.80;7.62;;;;;;;19.58;56.99;99037.91;4360623;32;34338;-86
2023/05/30 02:59:20;;;;;;;12.18;7.87;;;;;;;19.28;58.05;99035.19;4347179;32;33065;-88
2023/05/30 03:01:49;;;;;;;12.52;7.22;;;;;;;19.40;57.72;99042.75;4359270;32;33327;-87
2023/05/30 03:04:17;;;;;;;11.68;7.65;;;;;;;19.65;57.19;99044.78;4358556;32;32378;-87
2023/05/30 03:06:49;;;;;;;13.35;8.20;;;;;;;19.48;57.46;99046.97;4360826;32;35040;-86
2023/05/30 03:09:17;;;;;;;12.07;7.75;;;;;;;19.54;57.20;99052.91;4358666;32;33512;-86
2023/05/30 03:11:44;;;;;;;11.00;7.12;;;;;;;19.73;56.57;99053.31;4359421;32;32777;-86
2023/05/30 03:14:12;;;;;;;10.80;7.37;;;;;;;19.52;57.16;99052.09;4358868;32;34734;-88
2023/05/30 03:16:40;;;;;;;12.57;7.75;;;;;;;19.40;57.41;99053.25;4357534;32;34019;-88
2023/05/30 03:19:08;;;;;;;14.02;7.45;;;;;;;19.38;57.01;99057.69;4359351;32;34510;-87
2023/05/30 03:21:37;;;;;;;11.73;6.53;;;;;;;19.27;57.21;99064.97;4357560;32;33287;-89
2023/05/30 03:24:06;;;;;;;11.20;6.85;;;;;;;19.35;57.01;99051.62;4346590;32;33966;-88
2023/05/30 03:26:34;;;;;;;10.32;7.18;;;;;;;19.40;56.88;99055.03;4359727;32;34205;-87
2023/05/30 03:29:01;;;;;;;9.82;7.18;;;;;;;19.42;57.04;99061.97;4358023;32;33625;-87
2023/05/30 03:31:29;;;;;;;10.52;7.00;;;;;;;19.54;57.07;99062.56;4357274;32;33232;-88
2023/05/30 03:33:57;;;;;;;11.25;7.03;;;;;;;19.32;57.69;99068.38;4358547;32;33650;-86
2023/05/30 03:36:25;;;;;;;10.27;7.00;;;;;;;19.53;57.46;99066.09;4359912;32;33736;-88
2023/05/30 03:38:55;;;;;;;11.45;7.12;;;;;;;19.61;57.17;99065.00;4359558;32;33910;-88
2023/05/30 03:41:23;;;;;;;13.18;6.62;;;;;;;19.67;57.23;99066.66;4358555;32;34224;-89
2023/05/30 03:43:50;;;;;;;10.77;6.95;;;;;;;19.68;57.12;99073.63;4358556;32;34143;-88
2023/05/30 03:46:20;;;;;;;12.90;7.07;;;;;;;19.81;56.89;99075.06;4359634;32;33867;-87
2023/05/30 03:48:47;;;;;;;12.50;7.93;;;;;;;19.86;57.17;99075.78;4344738;32;32364;-88
2023/05/30 03:51:15;;;;;;;11.50;7.25;;;;;;;19.76;57.81;99074.28;4357604;32;33490;-87
2023/05/30 03:53:43;;;;;;;11.90;7.55;;;;;;;20.06;57.23;99079.66;4358283;32;33918;-88
2023/05/30 03:56:11;;;;;;;11.85;7.30;;;;;;;19.98;57.90;99073.72;4359522;32;34177;-88
2023/05/30 03:58:39;;;;;;;11.50;7.37;;;;;;;20.33;56.94;99080.66;4358996;32;33832;-89
2023/05/30 04:01:08;;;;;;;11.30;7.30;;;;;;;20.40;57.19;99082.22;4359317;32;33839;-89
2023/05/30 04:03:37;;;;;;;10.68;7.15;;;;;;;20.26;57.02;99087.84;4356534;32;34721;-86
2023/05/30 04:06:08;;;;;;;12.63;7.68;;;;;;;20.37;56.50;99085.78;4359438;32;33411;-87
2023/05/30 04:08:39;;;;;;;11.55;7.57;;;;;;;20.44;57.09;99082.97;4358923;32;33684;-87
2023/05/30 04:11:07;;;;;;;14.30;6.82;;;;;;;20.16;56.52;99086.41;4357995;32;33471;-88
2023/05/30 04:13:35;;;;;;;11.32;7.15;;;;;;;20.57;56.20;99089.62;4345971;32;33528;-88
2023/05/30 04:16:03;;;;;;;12.85;6.80;;;;;;;20.97;55.85;99089.31;4356415;32;34994;-88
2023/05/30 04:18:30;;;;;;;12.73;6.70;;;;;;;20.85;56.75;99092.34;4358953;32;33871;-88
2023/05/30 04:21:00;;;;;;;11.88;7.22;;;;;;;20.84;57.22;99096.75;4358543;32;33575;-87
2023/05/30 04:23:28;;;;;;;11.12;7.82;;;;;;;20.80;57.31;99102.16;4346935;32;33978;-85
2023/05/30 04:25:57;;;;;;;12.98;6.55;;;;;;;20.81;56.17;99102.09;4358685;32;34571;-84
2023/05/30 04:28:27;;;;;;;11.77;7.30;;;;;;;20.82;55.64;99098.56;4359608;32;33935;-84
2023/05/30 04:30:56;;;;;;;10.65;7.30;;;;;;;20.87;56.29;99104.56;4358213;32;33469;-86
2023/05/30 04:33:45;;;;;;;11.48;7.40;;;;;;;20.73;56.99;99109.37;4358371;32;34293;-87
2023/05/30 04:36:18;;;;;;;11.27;6.85;;;;;;;20.72;57.08;99099.75;4358393;32;33684;-87
2023/05/30 04:38:47;;;;;;;11.75;7.78;;;;;;;20.71;56.92;99113.81;4358571;32;33565;-86
2023/05/30 04:41:20;;;;;;;10.20;7.30;;;;;;;20.71;54.92;99108.53;4358092;32;33362;-86
2023/05/30 04:43:52;;;;;;;13.62;7.20;;;;;;;20.50;55.83;99117.94;4358108;32;34286;-87
2023/05/30 04:46:24;;;;;;;12.60;6.78;;;;;;;20.69;56.47;99110.38;4357759;32;34088;-86
2023/05/30 04:48:53;;;;;;;12.37;7.30;;;;;;;20.96;55.45;99115.75;4358558;32;34812;-86
2023/05/30 04:51:22;;;;;;;10.68;6.97;;;;;;;20.71;55.71;99119.09;4355503;32;32592;-86
2023/05/30 04:53:50;;;;;;;12.02;7.60;;;;;;;20.89;56.46;99125.59;4342357;32;33832;-87
2023/05/30 04:56:20;;;;;;;12.77;7.35;;;;;;;20.78;56.16;99123.28;4337691;32;33572;-86
2023/05/30 04:58:51;;;;;;;11.43;7.57;;;;;;;20.52;56.85;99126.66;4358587;32;34591;-87
2023/05/30 05:01:20;;;;;;;12.05;7.72;;;;;;;20.78;56.93;99130.31;4359069;32;33536;-87
2023/05/30 05:03:48;;;;;;;10.48;6.53;;;;;;;20.90;57.06;99124.69;4351612;32;34102;-87
2023/05/30 05:06:16;;;;;;;11.55;7.10;;;;;;;20.92;56.56;99119.38;4358336;32;34996;-86
2023/05/30 05:08:44;;;;;;;12.45;7.15;;;;;;;21.04;56.33;99127.75;4358986;32;34736;-87
2023/05/30 05:11:13;;;;;;;12.27;7.32;;;;;;;21.02;54.90;99124.28;4358749;32;34818;-88
2023/05/30 05:13:40;;;;;;;12.05;7.57;;;;;;;20.67;55.20;99128.00;4345578;32;34002;-87
2023/05/30 05:16:08;;;;;;;15.50;8.00;;;;;;;20.64;54.60;99126.28;4360674;32;33808;-86
2023/05/30 05:18:36;;;;;;;11.50;7.47;;;;;;;20.76;54.46;99127.75;4361224;32;34838;-87
2023/05/30 05:21:05;;;;;;;15.75;7.80;;;;;;;20.84;54.65;99131.00;4360608;32;33973;-87
2023/05/30 05:23:33;;;;;;;11.40;7.43;;;;;;;20.55;54.72;99131.84;4361078;32;34640;-88
2023/05/30 05:26:01;;;;;;;13.52;7.85;;;;;;;20.82;54.30;99132.81;4360658;32;34121;-87
2023/05/30 05:28:28;;;;;;;16.80;8.13;;;;;;;21.12;53.73;99131.03;4346676;32;33960;-88
2023/05/30 05:30:57;;;;;;;12.32;7.15;;;;;;;21.25;54.33;99133.28;4360983;32;33592;-87
2023/05/30 05:33:25;;;;;;;12.20;7.20;;;;;;;21.08;53.93;99144.34;4359406;32;33791;-88
2023/05/30 05:35:52;;;;;;;15.02;7.80;;;;;;;21.36;52.36;99139.09;4360683;32;34310;-87
2023/05/30 05:38:20;;;;;;;18.77;7.70;;;;;;;20.95;54.23;99142.97;4344188;33;33875;-87
2023/05/30 05:40:48;;;;;;;14.68;7.80;;;;;;;21.02;53.94;99141.88;4351622;32;33936;-87
2023/05/30 05:43:15;;;;;;;16.40;8.50;;;;;;;20.75;54.61;99152.34;4360281;32;33709;-88
2023/05/30 05:45:43;;;;;;;13.93;7.68;;;;;;;20.94;54.41;99149.16;4360669;32;32907;-87
2023/05/30 05:48:11;;;;;;;12.90;7.78;;;;;;;21.02;53.71;99144.53;4360787;32;34298;-86
2023/05/30 05:50:38;;;;;;;13.30;7.55;;;;;;;21.19;53.76;99144.88;4360808;32;33558;-87
2023/05/30 05:53:06;;;;;;;13.43;7.25;;;;;;;21.34;52.84;99147.09;4361064;32;33855;-87
2023/05/30 05:55:33;;;;;;;15.00;6.60;;;;;;;21.18;53.56;99145.81;4359970;32;34356;-86
2023/05/30 05:58:01;;;;;;;11.27;6.62;;;;;;;20.83;53.33;99152.12;4359274;32;33570;-86
2023/05/30 06:00:30;;;;;;;12.80;7.25;;;;;;;21.10;52.03;99151.31;4360942;32;34343;-86
2023/05/30 06:02:58;;;;;;;14.90;6.75;;;;;;;20.84;53.31;99149.44;4360560;32;33581;-86
2023/05/30 06:05:26;;;;;;;13.13;6.65;;;;;;;21.01;52.59;99150.72;4346103;32;35504;-86
2023/05/30 06:07:57;;;;;;;11.30;6.45;;;;;;;21.14;52.19;99149.44;4358390;32;34499;-85
2023/05/30 06:10:25;;;;;;;18.65;7.47;;;;;;;20.86;52.69;99159.94;4348101;32;33271;-87
2023/05/30 06:12:53;;;;;;;13.52;7.25;;;;;;;21.14;53.38;99155.59;4360578;32;34670;-86
2023/05/30 06:15:21;;;;;;;15.02;7.25;;;;;;;21.11;52.14;99165.34;4345942;32;35116;-87
2023/05/30 06:17:48;;;;;;;11.20;6.75;;;;;;;21.18;52.88;99168.69;4360845;32;34543;-87
2023/05/30 06:20:16;;;;;;;10.88;6.47;;;;;;;21.49;51.59;99168.63;4359445;32;34325;-86
2023/05/30 06:22:44;;;;;;;11.75;6.80;;;;;;;21.76;50.90;99158.94;4346970;32;33931;-86
2023/05/30 06:25:11;;;;;;;12.30;7.18;;;;;;;21.03;51.80;99172.63;4360422;32;33948;-87
2023/05/30 06:27:39;;;;;;;13.45;6.75;;;;;;;21.62;50.88;99180.50;4360775;32;33529;-87
2023/05/30 06:30:07;;;;;;;10.70;6.70;;;;;;;21.37;50.04;99178.63;4360727;32;34180;-86
2023/05/30 06:32:35;;;;;;;11.00;6.32;;;;;;;21.98;50.24;99169.66;4360604;32;33819;-86
2023/05/30 06:35:03;;;;;;;12.65;6.57;;;;;;;22.34;48.32;99168.41;4359459;32;34115;-87
2023/05/30 06:37:30;;;;;;;11.88;6.50;;;;;;;21.99;48.87;99160.81;4358786;32;34457;-86
2023/05/30 06:39:58;;;;;;;14.20;7.60;;;;;;;21.90;49.23;99169.06;4360645;32;34315;-85
2023/05/30 06:42:26;;;;;;;12.68;7.05;;;;;;;22.56;49.16;99172.94;4360428;32;33960;-86
2023/05/30 06:44:56;;;;;;;14.65;6.72;;;;;;;23.18;47.84;99176.81;4360788;32;34108;-86
2023/05/30 06:47:24;;;;;;;12.40;6.62;;;;;;;23.47;45.54;99165.97;4360624;32;34029;-86
2023/05/30 06:49:51;;;;;;;11.20;6.20;;;;;;;23.21;44.23;99172.28;4346664;32;33377;-86
2023/05/30 06:52:19;;;;;;;12.35;6.68;;;;;;;23.93;45.17;99165.91;4359319;32;34022;-86
2023/05/30 06:54:47;;;;;;;17.50;7.25;;;;;;;23.93;44.56;99171.22;4360847;32;34076;-86
2023/05/30 06:57:14;;;;;;;14.55;7.45;;;;;;;24.00;44.74;99172.69;4334788;32;33983;-87
2023/05/30 06:59:42;;;;;;;16.90;6.65;;;;;;;23.79;43.79;99179.75;4346450;32;33286;-87
2023/05/30 07:02:10;;;;;;;13.55;6.45;;;;;;;23.67;44.39;99178.44;4358058;32;34406;-86
2023/05/30 07:04:37;;;;;;;12.05;5.82;;;;;;;23.80;44.67;99181.47;4357851;32;33720;-84
2023/05/30 07:07:05;;;;;;;13.43;6.68;;;;;;;23.57;43.04;99179.72;4359846;32;33506;-86
2023/05/30 07:09:33;;;;;;;12.37;6.62;;;;;;;23.23;44.05;99191.63;4359987;32;33253;-86
2023/05/30 07:12:02;;;;;;;12.80;6.30;;;;;;;23.52;44.55;99197.53;4360093;32;33706;-86
2023/05/30 07:14:30;;;;;;;10.70;5.87;;;;;;;23.67;44.19;99194.31;4366491;32;35118;-87
2023/05/30 07:16:58;;;;;;;13.50;6.18;;;;;;;23.54;43.88;99198.34;4373998;32;34470;-87
2023/05/30 07:19:26;;;;;;;16.58;5.90;;;;;;;23.74;44.23;99190.50;4357856;32;33261;-87
2023/05/30 07:21:53;;;;;;;12.77;5.85;;;;;;;23.99;43.66;99195.66;4359902;32;34442;-87
2023/05/30 07:24:22;;;;;;;14.20;6.47;;;;;;;24.23;44.15;99195.53;4345653;32;34045;-87
2023/05/30 07:26:50;;;;;;;12.13;6.60;;;;;;;24.32;42.77;99188.97;4360438;32;34357;-87
2023/05/30 07:29:18;;;;;;;11.77;6.90;;;;;;;23.93;42.91;99197.69;4360391;32;34034;-86
2023/05/30 07:31:45;;;;;;;13.13;7.00;;;;;;;23.88;43.56;99195.22;4359757;32;33989;-85
2023/05/30 07:34:13;;;;;;;14.57;6.28;;;;;;;23.62;43.19;99198.91;4360166;32;34327;-86
2023/05/30 07:36:40;;;;;;;13.05;6.82;;;;;;;24.40;42.58;99197.53;4359789;32;33705;-85
2023/05/30 07:39:08;;;;;;;14.73;6.85;;;;;;;24.13;41.88;99192.44;4360340;32;33592;-84
2023/05/30 07:41:36;;;;;;;17.10;7.47;;;;;;;23.74;43.41;99193.13;4359549;32;33882;-86
2023/05/30 07:44:03;;;;;;;15.63;6.90;;;;;;;23.64;42.95;99196.19;4359447;32;34598;-86
2023/05/30 07:46:31;;;;;;;11.02;5.95;;;;;;;24.02;43.12;99192.87;4358244;32;34176;-86
2023/05/30 07:48:59;;;;;;;13.50;6.97;;;;;;;23.53;43.09;99199.28;4359844;32;33510;-85
2023/05/30 07:51:26;;;;;;;11.70;6.28;;;;;;;24.06;44.12;99198.91;4360359;32;34450;-86
2023/05/30 07:53:54;;;;;;;12.60;6.50;;;;;;;24.16;42.91;99197.59;4346469;32;35127;-86
2023/05/30 07:56:22;;;;;;;12.30;6.47;;;;;;;23.91;43.53;99203.06;4345915;32;33768;-86
2023/05/30 07:58:49;;;;;;;12.23;6.72;;;;;;;24.24;42.84;99191.97;4360042;32;33985;-87
2023/05/30 08:01:18;;;;;;;10.85;6.78;;;;;;;24.23;42.89;99193.75;4359842;32;34588;-87
2023/05/30 08:03:45;;;;;;;13.60;6.50;;;;;;;24.14;42.92;99202.09;4359620;32;34179;-87
2023/05/30 08:06:13;;;;;;;14.25;6.53;;;;;;;24.14;44.21;99201.25;4344083;32;34636;-86
2023/05/30 08:08:41;;;;;;;13.60;7.03;;;;;;;23.98;44.17;99199.25;4359776;32;33981;-87
2023/05/30 08:11:09;;;;;;;13.13;6.65;;;;;;;24.59;43.03;99203.75;4359877;32;33798;-87
2023/05/30 08:13:36;;;;;;;12.27;7.05;;;;;;;24.47;43.58;99205.12;4360298;32;34015;-87
2023/05/30 08:16:04;;;;;;;11.85;7.20;;;;;;;24.94;42.51;99206.59;4359720;32;33919;-86
2023/05/30 08:18:32;;;;;;;10.25;6.90;;;;;;;23.88;44.33;99204.97;4359361;32;33061;-86
2023/05/30 08:21:01;;;;;;;13.25;7.32;;;;;;;24.26;43.13;99204.22;4359480;32;33639;-87
2023/05/30 08:41:54;;;;;;;16.42;6.62;;;;;;;24.51;43.79;99200.56;4795271;27;20114;-86
2023/05/30 08:44:22;;;;;;;18.45;6.55;;;;;;;24.87;42.48;99198.06;4345752;32;33429;-86
2023/05/30 08:46:50;;;;;;;14.93;6.57;;;;;;;25.01;43.85;99208.03;4359055;32;34207;-86
2023/05/30 08:49:25;;;;;;;12.35;7.03;;;;;;;25.23;41.66;99203.50;4358691;32;33727;-86
2023/05/30 08:51:53;;;;;;;12.55;6.85;;;;;;;25.26;43.22;99201.63;4335803;32;33312;-86
2023/05/30 08:54:25;;;;;;;15.48;8.55;;;;;;;24.96;44.15;99213.56;4361094;32;33843;-86
2023/05/30 08:57:17;;;;;;;17.75;7.80;;;;;;;24.25;43.80;99223.72;4348009;32;33552;-86
2023/05/30 08:59:46;;;;;;;13.27;7.28;;;;;;;25.01;43.85;99221.31;4360940;32;33666;-86
2023/05/30 09:02:14;;;;;;;14.90;7.60;;;;;;;24.67;45.10;99233.41;4361255;32;34148;-86
2023/05/30 09:04:42;;;;;;;13.48;7.55;;;;;;;23.87;45.78;99235.03;4335364;32;33578;-86
2023/05/30 09:07:11;;;;;;;13.43;7.30;;;;;;;24.09;45.93;99234.97;4348120;32;33354;-86
2023/05/30 09:09:40;;;;;;;15.00;7.85;;;;;;;23.96;46.04;99242.59;4361222;32;33778;-86
2023/05/30 09:12:09;;;;;;;12.60;7.62;;;;;;;24.17;44.65;99238.19;4335658;32;33549;-86
2023/05/30 09:14:36;;;;;;;21.42;7.72;;;;;;;24.40;45.04;99235.47;4361137;32;34106;-86
2023/05/30 09:17:05;;;;;;;14.48;7.55;;;;;;;24.69;44.57;99250.09;4361269;32;34083;-87
2023/05/30 09:19:34;;;;;;;13.23;7.12;;;;;;;25.09;43.67;99248.34;4361076;32;33813;-87
2023/05/30 09:22:02;;;;;;;12.02;6.40;;;;;;;25.31;43.24;99247.41;4348004;32;33179;-86
2023/05/30 09:25:01;;;;;;;14.98;8.27;;;;;;;25.28;42.46;99245.75;4335676;32;32731;-86
2023/05/30 09:27:34;;;;;;;10.15;6.55;;;;;;;25.06;43.27;99256.44;4360976;32;33666;-86
2023/05/30 09:30:10;;;;;;;15.40;7.97;;;;;;;25.10;44.69;99251.88;4347657;32;33994;-86
2023/05/30 09:32:38;;;;;;;;;;;;;;;25.55;42.22;99256.84;4347865;32;33583;-86
2023/05/30 09:35:10;;;;;;;12.85;7.05;;;;;;;24.90;43.82;99261.56;4361147;32;35069;-86
2023/05/30 09:37:43;;;;;;;11.52;7.12;;;;;;;25.65;43.14;99255.50;4360999;32;33852;-86
2023/05/30 09:40:16;;;;;;;10.85;6.57;;;;;;;25.53;42.83;99261.37;4335587;32;33830;-87
2023/05/30 09:42:48;;;;;;;13.57;6.87;;;;;;;25.45;42.26;99252.91;4360660;32;33257;-86
2023/05/30 09:45:21;;;;;;;10.95;6.18;;;;;;;25.10;43.57;99260.69;4347429;32;34347;-86
2023/05/30 09:47:51;;;;;;;13.35;6.60;;;;;;;25.05;43.21;99257.38;4358537;32;34911;-86
2023/05/30 09:50:23;;;;;;;13.30;6.75;;;;;;;25.47;42.24;99256.38;4359838;32;34532;-88
2023/05/30 09:52:56;;;;;;;14.00;6.90;;;;;;;24.75;41.64;99256.94;4359874;32;33828;-86
2023/05/30 09:55:25;;;;;;;13.50;5.10;;;;;;;24.85;43.04;99252.97;4360944;32;34858;-86
2023/05/30 09:57:53;;;;;;;9.35;5.00;;;;;;;25.51;43.06;99249.97;4359569;32;34864;-86
2023/05/30 10:00:23;;;;;;;13.10;6.12;;;;;;;25.82;41.46;99249.41;4359754;32;33286;-86
2023/05/30 10:02:53;;;;;;;9.43;5.22;;;;;;;25.97;42.00;99250.44;4347449;32;33123;-86
2023/05/30 10:05:22;;;;;;;12.40;5.15;;;;;;;26.27;40.08;99242.75;4359694;32;34183;-86
2023/05/30 10:07:53;;;;;;;9.07;4.93;;;;;;;25.70;40.84;99242.84;4347618;32;34095;-86
2023/05/30 10:10:20;;;;;;;9.80;4.40;;;;;;;25.68;41.20;99250.06;4347433;32;33643;-86
2023/05/30 10:12:50;;;;;;;9.68;4.62;;;;;;;25.94;40.59;99261.22;4360727;32;33452;-86
2023/05/30 10:15:20;;;;;;;7.57;4.57;;;;;;;25.88;41.00;99242.94;4360806;32;34354;-87
2023/05/30 10:17:50;;;;;;;9.23;4.75;;;;;;;26.10;40.31;99240.97;4360839;32;35000;-86
2023/05/30 10:20:20;;;;;;;9.63;4.68;;;;;;;25.84;41.46;99238.72;4359783;32;34257;-86
2023/05/30 10:22:52;;;;;;;8.18;4.28;;;;;;;26.23;40.50;99235.03;4359629;32;33594;-86
2023/05/30 10:25:21;;;;;;;8.55;4.50;;;;;;;26.63;40.55;99239.19;4360583;32;33909;-86
2023/05/30 10:27:51;;;;;;;8.43;4.50;;;;;;;26.48;39.15;99222.25;4360915;32;34387;-87
2023/05/30 10:30:25;;;;;;;8.32;4.30;;;;;;;26.38;39.91;99220.97;4347256;32;34495;-85
2023/05/30 10:33:07;;;;;;;7.85;5.53;;;;;;;26.20;40.70;99246.66;4359870;32;33211;-86
2023/05/30 10:35:35;;;;;;;7.12;4.62;;;;;;;26.36;41.55;99247.59;4347291;32;33800;-86
2023/05/30 10:38:06;;;;;;;7.40;4.55;;;;;;;26.78;40.17;99240.19;4359502;32;35099;-85
2023/05/30 10:40:41;;;;;;;9.88;5.35;;;;;;;26.24;40.96;99234.94;4359173;32;34014;-86
2023/05/30 10:43:29;;;;;;;8.55;4.85;;;;;;;25.96;42.43;99232.81;4360598;32;33420;-86
2023/05/30 10:46:02;;;;;;;9.15;5.10;;;;;;;26.13;42.53;99234.59;4360330;32;34028;-86
2023/05/30 10:48:51;;;;;;;8.50;4.57;;;;;;;25.83;42.52;99232.53;4335542;32;33699;-86
2023/05/30 10:51:19;;;;;;;10.48;5.00;;;;;;;26.40;41.29;99243.00;4347338;32;33609;-86
2023/05/30 10:53:47;;;;;;;8.18;4.45;;;;;;;26.47;41.37;99231.13;4360662;32;33392;-86
2023/05/30 10:56:41;;;;;;;7.85;4.65;;;;;;;26.55;40.17;99230.75;4360591;32;33520;-86
2023/05/30 10:59:15;;;;;;;7.45;4.32;;;;;;;26.79;40.96;99244.59;4347406;32;33611;-86
2023/05/30 11:02:01;;;;;;;6.85;4.47;;;;;;;26.52;41.12;99228.25;4346875;32;34592;-86
2023/05/30 11:04:38;;;;;;;8.35;4.37;;;;;;;26.53;40.92;99228.19;4347390;32;33281;-86
2023/05/30 11:07:12;;;;;;;8.13;4.30;;;;;;;27.08;41.00;99230.56;4348202;32;33865;-86
2023/05/30 11:10:07;;;;;;;9.40;4.57;;;;;;;27.44;39.20;99218.91;4360718;32;34167;-86
2023/05/30 11:12:42;;;;;;;7.45;4.20;;;;;;;26.48;41.05;99224.91;4342160;32;34511;-86
2023/05/30 11:15:14;;;;;;;13.48;4.57;;;;;;;26.61;41.09;99222.47;4360532;32;33296;-86
2023/05/30 11:17:42;;;;;;;7.72;4.25;;;;;;;25.65;41.77;99234.25;4347402;32;33533;-86
2023/05/30 11:20:14;;;;;;;9.15;4.22;;;;;;;25.55;41.82;99227.66;4360653;32;33785;-86
2023/05/30 11:23:01;;;;;;;9.10;4.47;;;;;;;25.76;42.08;99224.91;4347299;32;34087;-86
2023/05/30 11:25:31;;;;;;;9.32;4.72;;;;;;;25.70;41.14;99226.94;4346735;32;31653;-85
2023/05/30 11:28:04;;;;;;;7.40;3.92;;;;;;;25.62;41.63;99223.78;4346926;32;34057;-86
2023/05/30 11:30:40;;;;;;;7.55;3.95;;;;;;;26.25;40.81;99212.72;4360465;32;34181;-86
2023/05/30 11:33:11;;;;;;;6.07;3.95;;;;;;;25.47;39.60;99219.22;4335339;32;34178;-86
2023/05/30 11:35:46;;;;;;;6.68;3.78;;;;;;;25.00;40.71;99214.25;4347038;32;34240;-85
2023/05/30 11:38:22;;;;;;;8.52;3.95;;;;;;;25.63;39.98;99214.03;4334623;32;33742;-86
2023/05/30 11:40:50;;;;;;;7.65;3.90;;;;;;;25.08;40.88;99221.88;4334709;32;34951;-86
2023/05/30 11:43:18;;;;;;;9.00;5.05;;;;;;;25.54;39.45;99210.03;4345501;32;32413;-86
2023/05/30 11:45:50;;;;;;;7.68;4.00;;;;;;;25.86;40.17;99205.81;4358938;32;33777;-86
2023/05/30 11:48:18;;;;;;;7.97;4.50;;;;;;;25.99;41.74;99215.84;4354685;32;34656;-86
2023/05/30 11:50:46;;;;;;;7.80;4.65;;;;;;;26.06;40.48;99212.78;4360082;32;34551;-86
2023/05/30 11:53:15;;;;;;;8.80;4.57;;;;;;;25.83;40.70;99197.12;4359826;32;34048;-86
2023/05/30 11:55:47;;;;;;;7.90;4.75;;;;;;;26.18;41.29;99203.38;4360120;32;34118;-86
2023/05/30 11:58:15;;;;;;;8.35;4.78;;;;;;;26.45;40.71;99193.13;4346500;32;32539;-86